Aérodrome :
LOGIN :

S'inscrire | Disclaimer

   EN    FR    IT 

 










Légende :    VFR   VFR Marginal   IFR   IFR Intensif   IFR Très Intensif
Visi : 
Plafond : 
>= 8 km
>= 3000ft
5 à 8 km
1000 à 3000 ft
1500m à 5 km
500 à 1000 ft
800 à 1500m
200 à 500 ft
< 800m
< 200 ft
Symboles :   Orages  Brouillard  Fortes neiges  Fortes précipitations  Vent > 20 kt
SIGMETs :   Divers  Orages  Givrage  Turbulence  Onde Orograph.  Cendres Volcan.







- Altitude de l'aérodrome : 297 ft
- Code IATA : ODB


LEBA - Córdoba

DERNIER METAR :
  • 220000Z AUTO VRB01KT CAVOK 12/09 Q1007

METARs EXPIRÉS :
  • 212330Z AUTO 18001KT CAVOK 13/09 Q1007
  • 212300Z AUTO 22003KT CAVOK 12/09 Q1007
  • 212230Z AUTO 00000KT CAVOK 13/09 Q1007
  • 212200Z AUTO 00000KT CAVOK 14/08 Q1008
  • 212130Z AUTO 08003KT CAVOK 14/08 Q1008

TAF TAF LEBA
Valide du 21 à 18h jusqu'au 22 à 03h UTC


211700Z 2118/2203 05009KT 9999 FEW040
Pas de NOTAMs connus pour ce terrain.
3 SIGMETs publiés pour la FIR Madrid (LECM) :
 
Turbulence forte
LECM SIGMET 5 VALID 220000/220400 LEVA
LECM MADRID FIR/UIR SEV TURB FCST WI N4454 W00735 - N4442 W00555 - N4151 W00547 - N4159 W00805 - N4454 W00735 FL240/310 STNR NC=
Turbulence forte
LECM SIGMET 4 VALID 220000/220400 LEVA
LECM MADRID FIR/UIR SEV TURB FCST W OF LINE N3553 W00521 - N4152 W00547 FL230/310 MOV NE NC=
Turbulence forte
LECM SIGMET 3 VALID 212010/220000 LEVA
LECM MADRID FIR/UIR SEV TURB FCST WI N4454 W00735 - N4442 W00555 - N4151 W00547 - N4159 W00805 - N4454 W00735 FL240/330 STNR NC=



MET'MAP, la Météo Aéronautique d'un coup d'oeil ! - Copyright ORBIFLY Décembre 2007 - Disclaimer

ORBIFLY MET'MAP TEAM :

Programmation & Développement : Alexandra Zaïnal
Conception & Développement : Baudouin d'Aumeries
Co-Programmation & Développement : Marc-Olivier Méhu
Soutien technique & logistique : Manuel Goepfert

Contact : metmap@orbifly.com




SOURCES & CREDITS :

   NOAA